Terminal Aerodrome Forecast
Issued by NWS

Current Version | Previous Version | Text Only | Print | Product List | Glossary Off
Versions: 1 2 3 4 5 6 7 8 9 10 11 12

000
FTUS41 KPBZ 181100
TAFHLG
TAF
KHLG 181139Z 1812/1912 14006KT P6SM SCT250
     FM181500 20008KT P6SM SCT080
     FM182200 29007KT P6SM SCT050
     FM190300 34005KT P6SM SKC=

USA.gov is the U.S. government's official web portal to all federal, state and local government web resources and services.